createdAt,value
2022-10-31T00:01:02.999Z,18.35
2022-10-31T00:03:20.952Z,11.18
2022-10-31T00:05:38.029Z,9.48
2022-10-31T00:07:55.295Z,9.82
2022-10-31T00:10:12.207Z,12.50
2022-10-31T00:12:29.464Z,12.13
2022-10-31T00:14:46.460Z,10.98
2022-10-31T00:17:03.439Z,13.75
2022-10-31T00:19:21.504Z,11.98
2022-10-31T00:21:38.513Z,17.00
2022-10-31T00:23:56.474Z,16.75
2022-10-31T00:26:13.382Z,12.55
2022-10-31T00:28:30.621Z,13.82
2022-10-31T00:30:47.664Z,12.13
2022-10-31T00:33:04.633Z,13.65
2022-10-31T00:35:21.627Z,12.18
2022-10-31T00:37:38.661Z,14.25
2022-10-31T00:39:55.647Z,12.73
2022-10-31T00:42:12.928Z,14.15
2022-10-31T00:44:31.120Z,12.77
2022-10-31T00:46:48.133Z,12.18
2022-10-31T00:49:05.090Z,9.27
2022-10-31T00:51:23.100Z,9.65
2022-10-31T00:53:39.970Z,11.00
2022-10-31T00:55:57.993Z,15.25
2022-10-31T01:00:32.278Z,16.60
2022-10-31T01:02:49.303Z,10.98
2022-10-31T01:05:07.290Z,10.30
2022-10-31T01:07:24.482Z,13.38
2022-10-31T01:09:41.804Z,13.73
2022-10-31T01:11:58.804Z,16.77
2022-10-31T01:14:16.851Z,13.32
2022-10-31T01:16:33.874Z,15.60
2022-10-31T01:18:50.742Z,17.02
2022-10-31T01:21:07.764Z,10.70
2022-10-31T01:23:25.055Z,11.45
2022-10-31T01:25:42.047Z,13.85
2022-10-31T01:28:00.274Z,12.75
2022-10-31T01:30:17.863Z,11.13
2022-10-31T01:32:35.745Z,11.70
2022-10-31T01:34:52.768Z,12.75
2022-10-31T01:37:09.995Z,10.15
2022-10-31T01:39:27.200Z,13.73
2022-10-31T01:41:45.199Z,14.15
2022-10-31T01:44:02.416Z,16.38
2022-10-31T01:46:19.437Z,7.82
2022-10-31T01:48:36.677Z,15.05
2022-10-31T01:50:53.960Z,10.63
2022-10-31T01:53:11.478Z,12.45
2022-10-31T01:55:30.372Z,21.27
2022-10-31T01:57:47.544Z,12.70
2022-10-31T02:00:04.585Z,16.55
2022-10-31T02:02:21.950Z,15.15
2022-10-31T02:04:39.012Z,11.18
2022-10-31T02:06:56.981Z,14.30
2022-10-31T02:09:14.178Z,17.58
2022-10-31T02:11:31.162Z,11.00
2022-10-31T02:13:48.341Z,15.02
2022-10-31T02:16:05.340Z,14.52
2022-10-31T02:18:22.558Z,13.45
2022-10-31T02:20:39.786Z,10.05
2022-10-31T02:22:57.040Z,20.17
2022-10-31T02:25:14.351Z,16.52
2022-10-31T02:27:31.202Z,13.32
2022-10-31T02:29:51.373Z,16.15
2022-10-31T02:32:08.577Z,14.60
2022-10-31T02:34:25.899Z,11.25
2022-10-31T02:36:42.795Z,11.77
2022-10-31T02:38:59.731Z,10.23
2022-10-31T02:41:17.003Z,14.07
2022-10-31T02:43:34.239Z,13.73
2022-10-31T02:45:51.422Z,15.77
2022-10-31T02:48:08.710Z,10.52
2022-10-31T02:50:26.929Z,11.68
2022-10-31T02:52:43.899Z,12.70
2022-10-31T02:55:00.880Z,12.75
2022-10-31T02:57:17.824Z,14.02
2022-10-31T02:59:35.095Z,14.82
2022-10-31T03:01:53.114Z,15.02
2022-10-31T03:04:11.660Z,19.10
2022-10-31T03:06:28.659Z,10.25
2022-10-31T03:08:45.838Z,12.27
2022-10-31T03:11:03.068Z,8.60
2022-10-31T03:13:21.073Z,12.70
2022-10-31T03:15:38.307Z,14.75
2022-10-31T03:17:55.316Z,13.52
2022-10-31T03:20:12.245Z,16.38
2022-10-31T03:22:29.241Z,11.07
2022-10-31T03:24:46.303Z,15.43
2022-10-31T03:27:03.248Z,10.90
2022-10-31T03:29:20.578Z,12.82
2022-10-31T03:31:38.586Z,10.10
2022-10-31T03:33:55.820Z,10.43
2022-10-31T03:36:12.794Z,12.77
2022-10-31T03:38:30.815Z,14.52
2022-10-31T03:40:47.833Z,13.73
2022-10-31T03:43:05.096Z,13.65
2022-10-31T03:45:24.826Z,10.57
2022-10-31T03:47:41.878Z,13.32
2022-10-31T03:49:58.874Z,15.13
2022-10-31T03:52:16.146Z,13.57
2022-10-31T03:54:33.151Z,8.63
2022-10-31T03:56:50.181Z,12.07
2022-10-31T03:59:07.417Z,16.63
2022-10-31T04:01:24.482Z,10.50
2022-10-31T04:03:41.596Z,15.40
2022-10-31T04:05:58.551Z,13.30
2022-10-31T04:08:15.841Z,10.15
2022-10-31T04:10:33.783Z,13.57
2022-10-31T04:12:51.663Z,16.10
2022-10-31T04:15:08.640Z,13.35
2022-10-31T04:17:25.830Z,12.18
2022-10-31T04:19:43.140Z,10.38
2022-10-31T04:22:00.080Z,19.50
2022-10-31T04:24:16.954Z,12.90
2022-10-31T04:26:35.369Z,15.60
2022-10-31T04:28:53.282Z,9.15
2022-10-31T04:31:10.342Z,14.38
2022-10-31T04:33:27.253Z,17.45
2022-10-31T04:35:44.318Z,10.45
2022-10-31T04:38:01.530Z,10.57
2022-10-31T04:40:18.491Z,17.60
2022-10-31T04:42:35.495Z,13.38
2022-10-31T04:44:52.482Z,13.60
2022-10-31T04:47:09.668Z,13.50
2022-10-31T04:49:26.701Z,13.18
2022-10-31T04:51:43.612Z,12.68
2022-10-31T04:54:00.829Z,15.60
2022-10-31T04:56:17.746Z,11.80
2022-10-31T04:58:34.756Z,11.60
2022-10-31T05:00:52.039Z,14.23
2022-10-31T05:03:09.501Z,9.75
2022-10-31T05:05:27.774Z,11.45
2022-10-31T05:07:44.731Z,17.95
2022-10-31T05:10:02.041Z,11.93
2022-10-31T05:12:19.220Z,11.95
2022-10-31T05:14:36.143Z,17.48
2022-10-31T05:16:53.207Z,12.90
2022-10-31T05:19:10.212Z,14.63
2022-10-31T05:21:27.230Z,14.57
2022-10-31T05:23:47.492Z,12.98
2022-10-31T05:26:05.962Z,10.68
2022-10-31T05:28:23.400Z,12.80
2022-10-31T05:30:40.307Z,12.50
2022-10-31T05:32:57.836Z,14.15
2022-10-31T05:35:15.965Z,13.95
2022-10-31T05:37:33.232Z,16.00
2022-10-31T05:39:50.496Z,11.70
2022-10-31T05:42:07.523Z,11.35
2022-10-31T05:44:24.582Z,10.75
2022-10-31T05:46:41.563Z,12.57
2022-10-31T05:49:01.735Z,12.25
2022-10-31T05:51:19.664Z,12.10
2022-10-31T05:53:36.880Z,12.32
2022-10-31T05:55:54.151Z,16.33
2022-10-31T05:58:11.394Z,12.00
2022-10-31T06:00:28.320Z,10.30
2022-10-31T06:02:45.292Z,11.07
2022-10-31T06:05:02.578Z,13.13
2022-10-31T06:07:19.751Z,13.68
2022-10-31T06:09:36.691Z,11.00
2022-10-31T06:11:54.101Z,12.57
2022-10-31T06:14:11.341Z,18.17
2022-10-31T06:16:29.268Z,9.82
2022-10-31T06:18:46.108Z,10.20
2022-10-31T06:21:03.137Z,15.23
2022-10-31T06:23:20.181Z,12.82
2022-10-31T06:25:37.368Z,12.57
2022-10-31T06:27:54.351Z,11.85
2022-10-31T06:30:11.258Z,17.08
2022-10-31T06:32:28.525Z,9.40
2022-10-31T06:34:45.820Z,13.70
2022-10-31T06:37:03.821Z,13.27
2022-10-31T06:39:20.734Z,12.10
2022-10-31T06:41:38.343Z,11.88
2022-10-31T06:43:55.551Z,9.70
2022-10-31T06:46:12.846Z,11.57
2022-10-31T06:48:32.186Z,14.32
2022-10-31T06:50:49.215Z,14.50
2022-10-31T06:53:07.187Z,13.50
2022-10-31T06:55:24.486Z,16.98
2022-10-31T06:57:41.423Z,13.10
2022-10-31T06:59:58.459Z,17.55
2022-10-31T07:02:15.434Z,17.67
2022-10-31T07:04:32.855Z,18.98
2022-10-31T07:06:51.917Z,13.15
2022-10-31T07:09:09.131Z,13.35
2022-10-31T07:11:26.041Z,12.27
2022-10-31T07:13:42.998Z,13.43
2022-10-31T07:16:00.036Z,12.82
2022-10-31T07:18:18.100Z,13.13
2022-10-31T07:20:35.586Z,13.93
2022-10-31T07:22:52.821Z,15.43
2022-10-31T07:25:09.716Z,16.27
2022-10-31T07:27:26.699Z,16.25
2022-10-31T07:29:43.716Z,17.05
2022-10-31T07:32:00.704Z,11.77
2022-10-31T07:34:17.917Z,18.45
2022-10-31T07:36:34.946Z,22.90
2022-10-31T07:38:52.386Z,20.70
2022-10-31T07:41:09.607Z,18.67
2022-10-31T07:43:26.673Z,16.83
2022-10-31T07:45:44.283Z,18.73
2022-10-31T07:48:02.964Z,21.80
2022-10-31T07:50:21.116Z,19.40
2022-10-31T07:52:38.159Z,25.02
2022-10-31T07:54:55.463Z,21.92
2022-10-31T07:57:12.525Z,20.35
2022-10-31T07:59:29.514Z,19.75
2022-10-31T08:01:47.531Z,20.92
2022-10-31T08:04:04.791Z,22.48
2022-10-31T08:06:21.734Z,13.63
2022-10-31T08:08:39.797Z,20.52
2022-10-31T08:10:56.691Z,15.55
2022-10-31T08:13:13.785Z,17.33
2022-10-31T08:15:31.075Z,18.42
2022-10-31T08:17:48.421Z,16.73
2022-10-31T08:20:05.646Z,12.45
2022-10-31T08:22:22.655Z,15.05
2022-10-31T08:24:46.884Z,17.95
2022-10-31T08:29:20.879Z,15.43
2022-10-31T08:31:42.621Z,13.43
2022-10-31T08:34:01.242Z,16.50
2022-10-31T08:36:18.581Z,16.48
2022-10-31T08:38:35.925Z,20.98
2022-10-31T08:40:52.973Z,11.15
2022-10-31T08:43:10.295Z,12.02
2022-10-31T08:45:27.632Z,14.32
2022-10-31T08:47:44.708Z,14.82
2022-10-31T08:50:02.874Z,18.25
2022-10-31T08:52:21.537Z,17.88
2022-10-31T08:54:39.543Z,20.23
2022-10-31T08:56:57.406Z,15.75
2022-10-31T08:59:14.478Z,20.00
2022-10-31T09:01:31.941Z,16.10
2022-10-31T09:03:49.330Z,20.90
2022-10-31T09:06:06.822Z,12.73
2022-10-31T09:08:25.268Z,17.27
2022-10-31T09:10:43.204Z,12.98
2022-10-31T09:13:00.181Z,16.75
2022-10-31T09:15:17.575Z,17.10
2022-10-31T09:17:35.338Z,13.80
2022-10-31T09:19:52.603Z,13.73
2022-10-31T09:22:09.850Z,16.30
2022-10-31T09:24:27.112Z,19.92
2022-10-31T09:26:44.266Z,20.13
2022-10-31T09:29:01.552Z,13.82
2022-10-31T09:31:18.611Z,13.30
2022-10-31T09:33:35.916Z,15.88
2022-10-31T09:35:52.974Z,13.85
2022-10-31T09:38:10.014Z,12.45
2022-10-31T09:40:27.290Z,16.52
2022-10-31T09:42:45.525Z,12.38
2022-10-31T09:45:02.464Z,11.82
2022-10-31T09:47:20.586Z,11.23
2022-10-31T09:49:41.620Z,13.30
2022-10-31T09:51:58.633Z,11.23
2022-10-31T09:54:16.054Z,10.70
2022-10-31T09:56:32.985Z,11.52
2022-10-31T09:58:50.725Z,13.85
2022-10-31T10:01:07.870Z,16.98
2022-10-31T10:03:26.423Z,12.43
2022-10-31T10:05:45.943Z,16.25
2022-10-31T10:08:04.877Z,15.13
2022-10-31T10:10:21.938Z,13.40
2022-10-31T10:12:40.352Z,11.68
2022-10-31T10:14:57.446Z,13.35
2022-10-31T10:17:14.760Z,11.20
2022-10-31T10:19:32.731Z,12.75
2022-10-31T10:21:50.088Z,18.88
2022-10-31T10:24:08.398Z,12.82
2022-10-31T10:26:25.465Z,13.63
2022-10-31T10:28:42.888Z,19.45
2022-10-31T10:31:00.996Z,17.52
2022-10-31T10:33:17.925Z,16.25
2022-10-31T10:35:35.938Z,14.02
2022-10-31T10:40:27.769Z,11.65
2022-10-31T10:42:44.811Z,12.20
2022-10-31T10:45:01.791Z,12.70
2022-10-31T10:47:18.846Z,17.40
2022-10-31T10:49:35.908Z,13.20
2022-10-31T10:54:29.912Z,12.18
2022-10-31T10:56:47.273Z,15.85
2022-10-31T10:59:06.394Z,14.43
2022-10-31T11:01:23.452Z,11.48
2022-10-31T11:03:40.582Z,13.80
2022-10-31T11:05:59.008Z,15.85
2022-10-31T11:08:21.500Z,15.40
2022-10-31T11:10:41.881Z,12.55
2022-10-31T11:12:59.525Z,22.05
2022-10-31T11:15:16.820Z,12.65
2022-10-31T11:17:34.181Z,12.25
2022-10-31T11:19:51.372Z,16.25
2022-10-31T11:22:09.104Z,15.82
2022-10-31T11:24:26.180Z,15.43
2022-10-31T11:26:43.267Z,13.85
2022-10-31T11:29:01.274Z,11.48
2022-10-31T11:31:20.651Z,14.93
2022-10-31T11:33:38.037Z,12.50
2022-10-31T11:35:57.903Z,11.25
2022-10-31T11:38:15.625Z,16.02
2022-10-31T11:40:32.834Z,14.30
2022-10-31T11:42:50.153Z,9.90
2022-10-31T11:45:07.142Z,15.43
2022-10-31T11:47:24.441Z,12.98
2022-10-31T11:49:41.909Z,14.77
2022-10-31T11:51:58.919Z,11.25
2022-10-31T11:54:16.239Z,15.15
2022-10-31T11:56:33.304Z,10.35
2022-10-31T11:58:50.337Z,15.98
2022-10-31T12:01:07.670Z,12.10
2022-10-31T12:03:24.723Z,15.05
2022-10-31T12:05:41.804Z,19.48
2022-10-31T12:08:03.450Z,13.05
2022-10-31T12:10:21.699Z,10.00
2022-10-31T12:12:39.063Z,15.27
2022-10-31T12:14:56.073Z,15.77
2022-10-31T12:17:13.154Z,11.85
2022-10-31T12:19:33.368Z,17.30
2022-10-31T12:21:51.398Z,19.35
2022-10-31T12:24:08.772Z,15.05
2022-10-31T12:26:25.807Z,20.70
2022-10-31T12:28:46.206Z,18.10
2022-10-31T12:31:06.379Z,13.98
2022-10-31T12:33:23.292Z,17.42
2022-10-31T12:35:42.299Z,16.85
2022-10-31T12:37:59.616Z,12.48
2022-10-31T12:40:16.963Z,12.02
2022-10-31T12:42:34.086Z,17.05
2022-10-31T12:44:51.313Z,13.18
2022-10-31T12:47:08.389Z,11.30
2022-10-31T12:49:31.446Z,12.63
2022-10-31T12:51:48.474Z,16.30
2022-10-31T12:54:07.729Z,11.95
2022-10-31T12:56:24.795Z,14.02
2022-10-31T12:58:42.782Z,15.20
2022-10-31T13:01:00.229Z,16.85
2022-10-31T13:03:18.143Z,16.20
2022-10-31T13:05:35.502Z,17.60
2022-10-31T13:07:52.873Z,16.08
2022-10-31T13:10:09.877Z,15.32
2022-10-31T13:12:27.321Z,13.88
2022-10-31T13:14:45.751Z,12.05
2022-10-31T13:17:02.883Z,14.77
2022-10-31T13:19:23.374Z,17.30
2022-10-31T13:21:40.629Z,13.23
2022-10-31T13:23:58.051Z,16.02
2022-10-31T13:26:16.112Z,15.18
2022-10-31T13:28:33.156Z,17.55
2022-10-31T13:30:53.265Z,17.02
2022-10-31T13:33:10.635Z,16.35
2022-10-31T13:35:28.017Z,14.40
2022-10-31T13:37:44.955Z,15.75
2022-10-31T13:40:03.063Z,15.60
2022-10-31T13:42:20.361Z,19.30
2022-10-31T13:44:38.648Z,18.48
2022-10-31T13:46:56.267Z,15.60
2022-10-31T13:49:13.290Z,16.95
2022-10-31T13:51:37.124Z,18.10
2022-10-31T13:53:54.214Z,15.82
2022-10-31T13:56:11.199Z,14.65
2022-10-31T13:58:28.291Z,13.73
2022-10-31T14:00:45.710Z,15.77
2022-10-31T14:03:02.889Z,13.68
2022-10-31T14:05:20.283Z,15.93
2022-10-31T14:07:37.599Z,11.48
2022-10-31T14:09:56.817Z,15.05
2022-10-31T14:12:13.813Z,11.25
2022-10-31T14:14:32.919Z,15.65
2022-10-31T14:16:55.533Z,18.50
2022-10-31T14:19:13.082Z,15.35
2022-10-31T14:21:30.122Z,13.57
2022-10-31T14:23:50.739Z,18.33
2022-10-31T14:26:11.473Z,18.52
2022-10-31T14:28:28.438Z,15.63
2022-10-31T14:30:45.843Z,15.45
2022-10-31T14:33:02.858Z,22.90
2022-10-31T14:35:21.506Z,16.27
2022-10-31T14:37:39.014Z,15.70
2022-10-31T14:39:56.088Z,14.48
2022-10-31T14:42:13.095Z,17.35
2022-10-31T14:44:30.116Z,16.60
2022-10-31T14:46:47.188Z,13.80
2022-10-31T14:49:04.174Z,18.95
2022-10-31T14:51:21.603Z,19.52
2022-10-31T14:53:39.463Z,18.00
2022-10-31T14:55:56.533Z,20.20
2022-10-31T14:58:13.680Z,16.65
2022-10-31T15:00:30.714Z,16.08
2022-10-31T15:02:48.032Z,19.45
2022-10-31T15:05:05.073Z,23.10
2022-10-31T15:07:24.962Z,19.92
2022-10-31T15:09:42.369Z,17.08
2022-10-31T15:11:59.726Z,17.02
2022-10-31T15:14:18.846Z,18.35
2022-10-31T15:16:35.790Z,23.67
2022-10-31T15:18:54.185Z,22.45
2022-10-31T15:21:12.495Z,17.60
2022-10-31T15:23:31.159Z,21.25
2022-10-31T15:25:48.238Z,20.63
2022-10-31T15:28:05.312Z,17.30
2022-10-31T15:30:22.308Z,15.90
2022-10-31T15:32:39.385Z,17.83
2022-10-31T15:34:56.326Z,16.05
2022-10-31T15:37:16.006Z,19.38
2022-10-31T15:39:32.937Z,18.92
2022-10-31T15:41:54.252Z,20.80
2022-10-31T15:44:11.879Z,17.83
2022-10-31T15:46:29.195Z,17.80
2022-10-31T15:48:46.450Z,19.63
2022-10-31T15:51:04.450Z,20.02
2022-10-31T15:53:21.491Z,19.30
2022-10-31T15:55:38.542Z,17.88
2022-10-31T15:57:55.407Z,17.15
2022-10-31T16:00:12.412Z,17.15
2022-10-31T16:02:29.811Z,16.73
2022-10-31T16:04:47.825Z,18.30
2022-10-31T16:07:05.134Z,17.85
2022-10-31T16:09:22.178Z,16.67
2022-10-31T16:11:40.104Z,15.95
2022-10-31T16:13:58.154Z,17.02
2022-10-31T16:16:34.211Z,16.00
2022-10-31T16:18:52.433Z,15.27
2022-10-31T16:21:09.673Z,19.08
2022-10-31T16:23:27.946Z,19.98
2022-10-31T16:25:45.182Z,17.48
2022-10-31T16:28:02.531Z,20.73
2022-10-31T16:30:19.814Z,18.23
2022-10-31T16:32:38.075Z,19.27
2022-10-31T16:34:55.352Z,17.52
2022-10-31T16:37:12.756Z,14.48
2022-10-31T16:39:29.758Z,15.77
2022-10-31T16:41:46.930Z,13.07
2022-10-31T16:44:04.184Z,20.40
2022-10-31T16:46:24.842Z,20.20
2022-10-31T16:48:42.038Z,19.63
2022-10-31T16:50:58.946Z,16.40
2022-10-31T16:53:15.978Z,14.35
2022-10-31T16:55:33.216Z,19.10
2022-10-31T16:57:50.135Z,14.93
2022-10-31T17:00:07.082Z,15.35
2022-10-31T17:02:24.224Z,19.92
2022-10-31T17:04:41.328Z,17.70
2022-10-31T17:06:58.333Z,15.77
2022-10-31T17:09:15.650Z,18.95
2022-10-31T17:11:33.629Z,18.85
2022-10-31T17:13:50.900Z,17.27
2022-10-31T17:16:07.833Z,16.77
2022-10-31T17:18:27.616Z,13.63
2022-10-31T17:20:45.930Z,16.77
2022-10-31T17:23:03.326Z,15.40
2022-10-31T17:25:20.739Z,21.65
2022-10-31T17:27:38.042Z,17.35
2022-10-31T17:29:55.009Z,16.38
2022-10-31T17:32:12.045Z,20.42
2022-10-31T17:34:30.073Z,21.45
2022-10-31T17:36:47.107Z,17.17
2022-10-31T17:39:04.343Z,21.35
2022-10-31T17:41:21.756Z,17.40
2022-10-31T17:43:38.797Z,21.33
2022-10-31T17:45:56.110Z,17.52
2022-10-31T17:48:13.336Z,20.25
2022-10-31T17:50:30.278Z,20.88
2022-10-31T17:52:47.569Z,18.92
2022-10-31T17:55:04.663Z,18.27
2022-10-31T17:57:22.994Z,21.40
2022-10-31T17:59:40.035Z,18.45
2022-10-31T18:01:57.195Z,13.68
2022-10-31T18:04:14.293Z,21.92
2022-10-31T18:06:31.547Z,20.75
2022-10-31T18:08:48.583Z,22.33
2022-10-31T18:11:05.643Z,25.00
2022-10-31T18:13:22.646Z,19.85
2022-10-31T18:15:42.074Z,17.17
2022-10-31T18:17:59.778Z,22.08
2022-10-31T18:20:17.103Z,17.48
2022-10-31T18:22:34.086Z,17.30
2022-10-31T18:24:51.330Z,18.35
2022-10-31T18:27:08.555Z,17.60
2022-10-31T18:29:25.616Z,15.57
2022-10-31T18:31:42.521Z,17.98
2022-10-31T18:33:59.755Z,19.92
2022-10-31T18:36:16.824Z,17.23
2022-10-31T18:38:33.826Z,16.23
2022-10-31T18:40:50.859Z,16.02
2022-10-31T18:43:07.796Z,18.05
2022-10-31T18:45:33.888Z,18.65
2022-10-31T18:48:01.990Z,15.93
2022-10-31T18:50:19.160Z,15.63
2022-10-31T18:52:36.276Z,18.88
2022-10-31T18:54:54.160Z,18.00
2022-10-31T18:57:11.430Z,15.98
2022-10-31T18:59:28.713Z,13.52
2022-10-31T19:01:46.158Z,15.75
2022-10-31T19:04:03.438Z,17.67
2022-10-31T19:06:20.355Z,19.30
2022-10-31T19:08:37.455Z,15.98
2022-10-31T19:10:55.392Z,18.80
2022-10-31T19:13:12.430Z,29.67
2022-10-31T19:15:30.400Z,29.10
2022-10-31T19:17:47.581Z,34.92
2022-10-31T19:20:04.907Z,35.60
2022-10-31T19:22:21.926Z,35.78
2022-10-31T19:24:40.769Z,37.08
2022-10-31T19:26:57.799Z,37.92
2022-10-31T19:29:14.855Z,37.22
2022-10-31T19:31:31.804Z,33.33
2022-10-31T19:33:48.855Z,28.15
2022-10-31T19:36:06.067Z,29.10
2022-10-31T19:38:25.131Z,26.95
2022-10-31T19:40:42.369Z,26.80
2022-10-31T19:42:59.664Z,31.75
2022-10-31T19:45:16.599Z,25.80
2022-10-31T19:47:33.551Z,21.70
2022-10-31T19:49:52.539Z,24.83
2022-10-31T19:52:09.606Z,21.67
2022-10-31T19:54:26.691Z,28.42
2022-10-31T19:56:44.612Z,23.33
2022-10-31T19:59:02.111Z,24.30
2022-10-31T20:01:19.207Z,27.45
2022-10-31T20:03:36.313Z,28.45
2022-10-31T20:05:53.463Z,23.45
2022-10-31T20:08:11.480Z,21.63
2022-10-31T20:10:28.769Z,27.50
2022-10-31T20:12:47.005Z,23.73
2022-10-31T20:15:04.155Z,24.70
2022-10-31T20:17:21.795Z,22.77
2022-10-31T20:19:39.198Z,19.10
2022-10-31T20:21:56.677Z,22.55
2022-10-31T20:24:13.939Z,19.58
2022-10-31T20:26:31.174Z,22.88
2022-10-31T20:28:49.143Z,24.05
2022-10-31T20:31:07.178Z,23.08
2022-10-31T20:33:24.487Z,23.55
2022-10-31T20:35:41.396Z,27.05
2022-10-31T20:37:58.628Z,20.88
2022-10-31T20:40:20.517Z,18.63
2022-10-31T20:42:37.577Z,24.20
2022-10-31T20:44:55.798Z,22.88
2022-10-31T20:47:13.177Z,19.70
2022-10-31T20:49:30.068Z,20.42
2022-10-31T20:51:47.033Z,20.67
2022-10-31T20:54:06.292Z,21.40
2022-10-31T20:56:25.951Z,16.38
2022-10-31T20:58:42.968Z,20.58
2022-10-31T21:01:01.087Z,19.55
2022-10-31T21:03:18.230Z,20.45
2022-10-31T21:05:35.216Z,20.38
2022-10-31T21:07:53.490Z,20.08
2022-10-31T21:10:10.722Z,20.02
2022-10-31T21:12:27.683Z,27.08
2022-10-31T21:14:44.891Z,16.83
2022-10-31T21:17:01.925Z,15.55
2022-10-31T21:19:18.833Z,25.23
2022-10-31T21:21:36.162Z,20.30
2022-10-31T21:23:53.399Z,23.48
2022-10-31T21:26:10.383Z,22.42
2022-10-31T21:28:28.491Z,19.20
2022-10-31T21:30:45.783Z,19.10
2022-10-31T21:33:02.754Z,22.23
2022-10-31T21:35:20.721Z,28.75
2022-10-31T21:37:37.798Z,30.85
2022-10-31T21:39:55.138Z,35.97
2022-10-31T21:42:12.983Z,34.38
2022-10-31T21:44:33.308Z,37.70
2022-10-31T21:46:50.243Z,31.67
2022-10-31T21:49:07.285Z,28.25
2022-10-31T21:51:25.525Z,34.08
2022-10-31T21:53:42.750Z,29.88
2022-10-31T21:55:59.803Z,23.85
2022-10-31T21:58:16.789Z,28.92
2022-10-31T22:00:33.791Z,28.63
2022-10-31T22:02:50.777Z,27.75
2022-10-31T22:05:09.562Z,28.58
2022-10-31T22:07:26.848Z,31.40
2022-10-31T22:09:45.687Z,26.80
2022-10-31T22:12:02.668Z,24.10
2022-10-31T22:14:20.630Z,29.80
2022-10-31T22:16:37.903Z,30.17
2022-10-31T22:18:54.934Z,24.05
2022-10-31T22:21:11.847Z,29.40
2022-10-31T22:23:29.138Z,29.55
2022-10-31T22:25:46.172Z,28.15
2022-10-31T22:28:04.431Z,28.95
2022-10-31T22:30:21.803Z,25.50
2022-10-31T22:32:38.725Z,34.50
2022-10-31T22:34:55.994Z,29.38
2022-10-31T22:37:17.265Z,28.05
2022-10-31T22:39:36.547Z,26.10
2022-10-31T22:41:53.565Z,31.05
2022-10-31T22:44:11.784Z,29.75
2022-10-31T22:46:29.221Z,27.77
2022-10-31T22:48:46.655Z,30.85
2022-10-31T22:51:04.789Z,33.63
2022-10-31T22:53:21.948Z,31.05
2022-10-31T22:55:38.909Z,31.00
2022-10-31T22:57:56.148Z,31.70
2022-10-31T23:00:13.291Z,30.20
2022-10-31T23:02:30.646Z,29.23
2022-10-31T23:04:50.908Z,34.72
2022-10-31T23:07:09.692Z,35.40
2022-10-31T23:09:29.624Z,30.17
2022-10-31T23:11:46.873Z,33.22
2022-10-31T23:14:04.539Z,33.45
2022-10-31T23:16:28.646Z,35.85
2022-10-31T23:21:07.489Z,33.80
2022-10-31T23:23:24.916Z,37.53
2022-10-31T23:25:41.882Z,32.55
2022-10-31T23:28:00.250Z,30.95
2022-10-31T23:30:19.347Z,26.63
2022-10-31T23:32:39.486Z,27.63
2022-10-31T23:34:56.510Z,27.02
2022-10-31T23:37:13.778Z,30.67
2022-10-31T23:39:31.029Z,26.70
2022-10-31T23:41:48.246Z,21.52
2022-10-31T23:44:05.273Z,27.92
2022-10-31T23:46:22.246Z,24.98
2022-10-31T23:48:39.249Z,26.73
2022-10-31T23:50:56.485Z,35.10
2022-10-31T23:53:13.416Z,27.40
2022-10-31T23:55:30.721Z,28.73
2022-10-31T23:57:47.939Z,25.30
